TAT21SB LFRS-EGHI
Flight info
| Callsign | TAT21SB |
|---|---|
| Flight time | 0h 48m |
| Altitude | 28000 |
| Route | REN DCT JSY DCT SAM |
| Aircraft | F28/M-SDFIRWY/H |
Departure
| Time | 2026-04-28 14:45 |
|---|---|
| Airport | Nantes Atlantique Airport (LFRS) |
Arrival
| Time | 2026-04-28 15:34 |
|---|---|
| Airport | Southampton Airport (EGHI) |
| Time | Latitude | Longitude | Altitude | Speed | Heading |
|---|---|---|---|---|---|
| 2026-04-28 14:30 | 47.15349 | -1.60547 | 115 ft | 0 kts | 237° |
| 2026-04-28 14:39 | 47.15348 | -1.60549 | 115 ft | 1 kts | 242° |
| 2026-04-28 14:40 | 47.15356 | -1.60566 | 106 ft | 5 kts | 329° |
| 2026-04-28 14:40 | 47.15368 | -1.60572 | 97 ft | 6 kts | 341° |
| 2026-04-28 14:40 | 47.15414 | -1.60630 | 92 ft | 0 kts | 294° |
| 2026-04-28 14:41 | 47.15421 | -1.60653 | 93 ft | 9 kts | 294° |
| 2026-04-28 14:41 | 47.15405 | -1.60743 | 93 ft | 13 kts | 206° |
| 2026-04-28 14:41 | 47.15279 | -1.60835 | 97 ft | 24 kts | 207° |
| 2026-04-28 14:42 | 47.15125 | -1.60950 | 96 ft | 24 kts | 207° |
| 2026-04-28 14:42 | 47.14973 | -1.61067 | 95 ft | 25 kts | 208° |
| 2026-04-28 14:42 | 47.14826 | -1.61180 | 94 ft | 24 kts | 207° |
| 2026-04-28 14:42 | 47.14681 | -1.61291 | 93 ft | 23 kts | 207° |
| 2026-04-28 14:43 | 47.14535 | -1.61402 | 90 ft | 24 kts | 207° |
| 2026-04-28 14:43 | 47.14386 | -1.61517 | 85 ft | 25 kts | 207° |
| 2026-04-28 14:43 | 47.14229 | -1.61632 | 82 ft | 25 kts | 207° |
| 2026-04-28 14:43 | 47.14158 | -1.61740 | 72 ft | 12 kts | 252° |
| 2026-04-28 14:44 | 47.14138 | -1.61852 | 77 ft | 11 kts | 273° |
| 2026-04-28 14:44 | 47.14171 | -1.61935 | 75 ft | 8 kts | 343° |
| 2026-04-28 14:44 | 47.14195 | -1.61930 | 78 ft | 2 kts | 30° |
| 2026-04-28 14:44 | 47.14206 | -1.61920 | 73 ft | 17 kts | 29° |
| 2026-04-28 14:45 | 47.14537 | -1.61656 | 91 ft | 88 kts | 32° |
| 2026-04-28 14:45 | 47.15239 | -1.61128 | 157 ft | 133 kts | 28° |
| 2026-04-28 14:45 | 47.16107 | -1.60537 | 836 ft | 139 kts | 26° |
| 2026-04-28 14:45 | 47.16745 | -1.60119 | 1202 ft | 163 kts | 24° |
| 2026-04-28 14:46 | 47.18325 | -1.59125 | 2151 ft | 196 kts | 22° |
| 2026-04-28 14:46 | 47.19672 | -1.58353 | 2872 ft | 218 kts | 21° |
| 2026-04-28 14:46 | 47.21208 | -1.58194 | 3409 ft | 233 kts | 347° |
| 2026-04-28 14:46 | 47.22583 | -1.59525 | 3893 ft | 239 kts | 322° |
| 2026-04-28 14:47 | 47.23858 | -1.61001 | 4680 ft | 232 kts | 333° |
| 2026-04-28 14:47 | 47.25367 | -1.61992 | 4854 ft | 243 kts | 346° |
| 2026-04-28 14:47 | 47.27009 | -1.62610 | 5116 ft | 244 kts | 351° |
| 2026-04-28 14:47 | 47.28676 | -1.63017 | 5480 ft | 240 kts | 356° |
| 2026-04-28 14:48 | 47.30343 | -1.63172 | 5994 ft | 243 kts | 1° |
| 2026-04-28 14:48 | 47.32063 | -1.63326 | 6478 ft | 253 kts | 358° |
| 2026-04-28 14:48 | 47.33851 | -1.63555 | 6939 ft | 264 kts | 358° |
| 2026-04-28 14:48 | 47.35728 | -1.63811 | 7468 ft | 277 kts | 357° |
| 2026-04-28 14:49 | 47.37696 | -1.64070 | 8057 ft | 291 kts | 356° |
| 2026-04-28 14:49 | 47.39051 | -1.64251 | 8485 ft | 299 kts | 356° |
| 2026-04-28 14:49 | 47.41865 | -1.64620 | 9380 ft | 313 kts | 355° |
| 2026-04-28 14:49 | 47.43345 | -1.64812 | 9858 ft | 319 kts | 355° |
| 2026-04-28 14:50 | 47.45582 | -1.65106 | 10520 ft | 327 kts | 354° |
| 2026-04-28 14:50 | 47.47866 | -1.65403 | 11215 ft | 333 kts | 354° |
| 2026-04-28 14:50 | 47.50196 | -1.65708 | 11929 ft | 338 kts | 354° |
| 2026-04-28 14:50 | 47.52550 | -1.66017 | 12672 ft | 342 kts | 354° |
| 2026-04-28 14:51 | 47.54928 | -1.66322 | 13442 ft | 344 kts | 354° |
| 2026-04-28 14:51 | 47.57323 | -1.66610 | 14155 ft | 347 kts | 353° |
| 2026-04-28 14:51 | 47.59751 | -1.66937 | 14711 ft | 353 kts | 352° |
| 2026-04-28 14:51 | 47.62212 | -1.67279 | 15297 ft | 358 kts | 352° |
| 2026-04-28 14:52 | 47.64701 | -1.67645 | 15889 ft | 361 kts | 352° |
| 2026-04-28 14:52 | 47.67208 | -1.68044 | 16497 ft | 364 kts | 351° |
| 2026-04-28 14:52 | 47.69739 | -1.68462 | 17074 ft | 368 kts | 351° |
| 2026-04-28 14:52 | 47.72293 | -1.68892 | 17674 ft | 370 kts | 351° |
| 2026-04-28 14:53 | 47.74856 | -1.69361 | 18283 ft | 372 kts | 350° |
| 2026-04-28 14:53 | 47.77427 | -1.69889 | 18784 ft | 375 kts | 349° |
| 2026-04-28 14:53 | 47.80024 | -1.70443 | 19266 ft | 377 kts | 349° |
| 2026-04-28 14:53 | 47.82627 | -1.70990 | 19758 ft | 380 kts | 351° |
| 2026-04-28 14:54 | 47.85235 | -1.71317 | 20191 ft | 383 kts | 352° |
| 2026-04-28 14:54 | 47.87896 | -1.71687 | 20626 ft | 386 kts | 352° |
| 2026-04-28 14:54 | 47.90581 | -1.72035 | 21041 ft | 389 kts | 352° |
| 2026-04-28 14:54 | 47.93287 | -1.72388 | 21457 ft | 392 kts | 351° |
| 2026-04-28 14:55 | 47.96009 | -1.72746 | 21860 ft | 394 kts | 351° |
| 2026-04-28 14:55 | 47.98754 | -1.73104 | 22253 ft | 397 kts | 351° |
| 2026-04-28 14:55 | 48.01514 | -1.73463 | 22623 ft | 400 kts | 351° |
| 2026-04-28 14:55 | 48.04294 | -1.73826 | 22995 ft | 402 kts | 351° |
| 2026-04-28 14:56 | 48.07088 | -1.74198 | 23353 ft | 404 kts | 350° |
| 2026-04-28 14:56 | 48.09888 | -1.74626 | 23684 ft | 406 kts | 349° |
| 2026-04-28 14:56 | 48.12702 | -1.75127 | 23963 ft | 408 kts | 348° |
| 2026-04-28 14:56 | 48.15518 | -1.75665 | 24253 ft | 409 kts | 348° |
| 2026-04-28 14:57 | 48.18354 | -1.76230 | 24528 ft | 411 kts | 348° |
| 2026-04-28 14:57 | 48.20230 | -1.76614 | 24712 ft | 412 kts | 348° |
| 2026-04-28 14:57 | 48.24034 | -1.77451 | 25072 ft | 413 kts | 346° |
| 2026-04-28 14:57 | 48.26865 | -1.78214 | 25329 ft | 415 kts | 346° |
| 2026-04-28 14:58 | 48.29702 | -1.79035 | 25583 ft | 416 kts | 345° |
| 2026-04-28 14:58 | 48.32544 | -1.79888 | 25837 ft | 417 kts | 345° |
| 2026-04-28 14:58 | 48.35397 | -1.80764 | 26083 ft | 419 kts | 345° |
| 2026-04-28 14:58 | 48.38255 | -1.81655 | 26334 ft | 420 kts | 345° |
| 2026-04-28 14:59 | 48.41123 | -1.82560 | 26574 ft | 422 kts | 345° |
| 2026-04-28 14:59 | 48.44000 | -1.83475 | 26795 ft | 423 kts | 345° |
| 2026-04-28 14:59 | 48.46888 | -1.84402 | 27008 ft | 425 kts | 345° |
| 2026-04-28 14:59 | 48.49783 | -1.85339 | 27220 ft | 426 kts | 345° |
| 2026-04-28 15:00 | 48.52686 | -1.86283 | 27427 ft | 427 kts | 345° |
| 2026-04-28 15:00 | 48.55597 | -1.87239 | 27638 ft | 429 kts | 345° |
| 2026-04-28 15:00 | 48.58523 | -1.88150 | 27826 ft | 431 kts | 348° |
| 2026-04-28 15:00 | 48.61500 | -1.88778 | 28020 ft | 433 kts | 351° |
| 2026-04-28 15:01 | 48.64458 | -1.89308 | 28140 ft | 436 kts | 351° |
| 2026-04-28 15:01 | 48.70558 | -1.90312 | 28143 ft | 446 kts | 352° |
| 2026-04-28 15:02 | 48.74761 | -1.90964 | 28138 ft | 441 kts | 353° |
| 2026-04-28 15:02 | 48.77768 | -1.91437 | 28134 ft | 428 kts | 353° |
| 2026-04-28 15:02 | 48.80691 | -1.91906 | 28127 ft | 421 kts | 353° |
| 2026-04-28 15:03 | 48.86593 | -1.92895 | 28138 ft | 432 kts | 353° |
| 2026-04-28 15:03 | 48.92635 | -1.93966 | 28154 ft | 442 kts | 353° |
| 2026-04-28 15:04 | 48.98768 | -1.95120 | 28163 ft | 441 kts | 353° |
| 2026-04-28 15:04 | 49.04860 | -1.96347 | 28157 ft | 440 kts | 353° |
| 2026-04-28 15:05 | 49.10904 | -1.97638 | 28151 ft | 437 kts | 353° |
| 2026-04-28 15:05 | 49.16931 | -1.98984 | 28159 ft | 439 kts | 353° |
| 2026-04-28 15:06 | 49.22982 | -2.00392 | 28158 ft | 441 kts | 353° |
| 2026-04-28 15:06 | 49.29052 | -2.01852 | 28157 ft | 442 kts | 352° |
| 2026-04-28 15:07 | 49.35129 | -2.03358 | 28165 ft | 438 kts | 352° |
| 2026-04-28 15:07 | 49.38102 | -2.04086 | 28159 ft | 427 kts | 356° |
| 2026-04-28 15:07 | 49.41015 | -2.04004 | 28159 ft | 412 kts | 11° |
| 2026-04-28 15:07 | 49.43671 | -2.02796 | 28169 ft | 399 kts | 26° |
| 2026-04-28 15:08 | 49.46136 | -2.00943 | 28176 ft | 390 kts | 30° |
| 2026-04-28 15:08 | 49.50819 | -1.97030 | 28176 ft | 376 kts | 31° |
| 2026-04-28 15:09 | 49.55296 | -1.93114 | 28178 ft | 365 kts | 31° |
| 2026-04-28 15:09 | 49.59656 | -1.89307 | 28010 ft | 359 kts | 27° |
| 2026-04-28 15:09 | 49.61264 | -1.88449 | 27692 ft | 367 kts | 14° |
| 2026-04-28 15:10 | 49.64655 | -1.87699 | 27119 ft | 376 kts | 9° |
| 2026-04-28 15:10 | 49.67256 | -1.87165 | 26690 ft | 379 kts | 13° |
| 2026-04-28 15:10 | 49.69876 | -1.86418 | 26124 ft | 386 kts | 15° |
| 2026-04-28 15:10 | 49.72494 | -1.85398 | 25583 ft | 391 kts | 17° |
| 2026-04-28 15:11 | 49.75151 | -1.84354 | 25058 ft | 396 kts | 17° |
| 2026-04-28 15:11 | 49.77829 | -1.83269 | 24550 ft | 400 kts | 17° |
| 2026-04-28 15:11 | 49.80529 | -1.82174 | 24051 ft | 403 kts | 17° |
| 2026-04-28 15:11 | 49.83246 | -1.81073 | 23521 ft | 405 kts | 17° |
| 2026-04-28 15:12 | 49.85976 | -1.79965 | 22934 ft | 406 kts | 17° |
| 2026-04-28 15:12 | 49.88710 | -1.78854 | 22368 ft | 407 kts | 17° |
| 2026-04-28 15:12 | 49.91451 | -1.77740 | 21809 ft | 407 kts | 17° |
| 2026-04-28 15:12 | 49.94190 | -1.76627 | 21277 ft | 406 kts | 17° |
| 2026-04-28 15:13 | 49.96914 | -1.75517 | 20755 ft | 403 kts | 18° |
| 2026-04-28 15:13 | 49.99619 | -1.74414 | 20246 ft | 400 kts | 18° |
| 2026-04-28 15:13 | 50.02298 | -1.73322 | 19744 ft | 396 kts | 18° |
| 2026-04-28 15:13 | 50.04953 | -1.72237 | 19252 ft | 392 kts | 18° |
| 2026-04-28 15:14 | 50.07579 | -1.71163 | 18773 ft | 389 kts | 18° |
| 2026-04-28 15:14 | 50.10182 | -1.70098 | 18276 ft | 385 kts | 18° |
| 2026-04-28 15:14 | 50.12755 | -1.69042 | 17737 ft | 380 kts | 18° |
| 2026-04-28 15:14 | 50.15300 | -1.67999 | 17274 ft | 375 kts | 18° |
| 2026-04-28 15:15 | 50.17798 | -1.66974 | 16854 ft | 368 kts | 18° |
| 2026-04-28 15:15 | 50.19431 | -1.66302 | 16577 ft | 364 kts | 18° |
| 2026-04-28 15:15 | 50.22692 | -1.64958 | 16032 ft | 363 kts | 18° |
| 2026-04-28 15:15 | 50.25138 | -1.63951 | 15633 ft | 364 kts | 18° |
| 2026-04-28 15:16 | 50.27598 | -1.62936 | 15246 ft | 365 kts | 18° |
| 2026-04-28 15:16 | 50.30023 | -1.61935 | 14877 ft | 365 kts | 18° |
| 2026-04-28 15:16 | 50.32480 | -1.60921 | 14502 ft | 365 kts | 18° |
| 2026-04-28 15:16 | 50.34939 | -1.59903 | 14143 ft | 365 kts | 18° |
| 2026-04-28 15:17 | 50.37398 | -1.58886 | 13757 ft | 365 kts | 18° |
| 2026-04-28 15:17 | 50.39853 | -1.57868 | 13366 ft | 365 kts | 18° |
| 2026-04-28 15:17 | 50.42309 | -1.56849 | 12977 ft | 365 kts | 18° |
| 2026-04-28 15:17 | 50.44761 | -1.55832 | 12599 ft | 364 kts | 18° |
| 2026-04-28 15:18 | 50.47213 | -1.54811 | 12231 ft | 364 kts | 18° |
| 2026-04-28 15:18 | 50.49654 | -1.53794 | 11866 ft | 363 kts | 18° |
| 2026-04-28 15:18 | 50.52095 | -1.52778 | 11515 ft | 363 kts | 18° |
| 2026-04-28 15:18 | 50.54533 | -1.51761 | 11159 ft | 362 kts | 18° |
| 2026-04-28 15:19 | 50.56963 | -1.50747 | 10815 ft | 361 kts | 18° |
| 2026-04-28 15:19 | 50.59389 | -1.49732 | 10474 ft | 360 kts | 18° |
| 2026-04-28 15:19 | 50.61799 | -1.48726 | 10133 ft | 351 kts | 18° |
| 2026-04-28 15:19 | 50.64093 | -1.47768 | 9981 ft | 329 kts | 18° |
| 2026-04-28 15:20 | 50.66245 | -1.46865 | 9868 ft | 312 kts | 19° |
| 2026-04-28 15:20 | 50.68302 | -1.45999 | 9742 ft | 299 kts | 19° |
| 2026-04-28 15:20 | 50.70281 | -1.45168 | 9594 ft | 290 kts | 19° |
| 2026-04-28 15:20 | 50.72207 | -1.44357 | 9381 ft | 284 kts | 19° |
| 2026-04-28 15:21 | 50.74104 | -1.43560 | 9121 ft | 281 kts | 19° |
| 2026-04-28 15:21 | 50.75984 | -1.42766 | 8866 ft | 278 kts | 19° |
| 2026-04-28 15:21 | 50.77824 | -1.41993 | 8635 ft | 276 kts | 19° |
| 2026-04-28 15:21 | 50.79673 | -1.41214 | 8398 ft | 274 kts | 19° |
| 2026-04-28 15:22 | 50.81512 | -1.40438 | 8173 ft | 273 kts | 19° |
| 2026-04-28 15:22 | 50.83335 | -1.39669 | 7931 ft | 268 kts | 19° |
| 2026-04-28 15:22 | 50.85119 | -1.38916 | 7661 ft | 263 kts | 19° |
| 2026-04-28 15:22 | 50.86873 | -1.38174 | 7367 ft | 259 kts | 19° |
| 2026-04-28 15:23 | 50.88602 | -1.37442 | 7069 ft | 256 kts | 19° |
| 2026-04-28 15:23 | 50.90318 | -1.36713 | 6778 ft | 254 kts | 19° |
| 2026-04-28 15:23 | 50.92013 | -1.35997 | 6466 ft | 250 kts | 20° |
| 2026-04-28 15:23 | 50.93683 | -1.35289 | 6138 ft | 247 kts | 20° |
| 2026-04-28 15:24 | 50.95337 | -1.34587 | 5822 ft | 245 kts | 20° |
| 2026-04-28 15:24 | 50.96875 | -1.33586 | 5497 ft | 235 kts | 42° |
| 2026-04-28 15:24 | 50.97801 | -1.31558 | 5174 ft | 226 kts | 74° |
| 2026-04-28 15:24 | 50.97805 | -1.29116 | 4887 ft | 225 kts | 106° |
| 2026-04-28 15:25 | 50.96893 | -1.27115 | 4599 ft | 231 kts | 139° |
| 2026-04-28 15:25 | 50.95370 | -1.26239 | 4304 ft | 242 kts | 171° |
| 2026-04-28 15:25 | 50.93707 | -1.26790 | 3998 ft | 251 kts | 202° |
| 2026-04-28 15:25 | 50.92183 | -1.28147 | 3722 ft | 251 kts | 208° |
| 2026-04-28 15:26 | 50.90711 | -1.29612 | 3422 ft | 249 kts | 210° |
| 2026-04-28 15:26 | 50.89255 | -1.31095 | 3114 ft | 248 kts | 211° |
| 2026-04-28 15:26 | 50.87804 | -1.32571 | 2822 ft | 247 kts | 211° |
| 2026-04-28 15:26 | 50.86359 | -1.34032 | 2570 ft | 245 kts | 211° |
| 2026-04-28 15:27 | 50.84932 | -1.35467 | 2315 ft | 241 kts | 211° |
| 2026-04-28 15:27 | 50.83524 | -1.36865 | 2113 ft | 236 kts | 209° |
| 2026-04-28 15:27 | 50.82104 | -1.38081 | 1955 ft | 228 kts | 200° |
| 2026-04-28 15:27 | 50.80659 | -1.39040 | 1782 ft | 224 kts | 207° |
| 2026-04-28 15:28 | 50.79576 | -1.40744 | 1573 ft | 220 kts | 245° |
| 2026-04-28 15:28 | 50.79275 | -1.43025 | 1387 ft | 209 kts | 282° |
| 2026-04-28 15:28 | 50.79801 | -1.45012 | 1161 ft | 189 kts | 322° |
| 2026-04-28 15:28 | 50.80824 | -1.45813 | 1204 ft | 150 kts | 6° |
| 2026-04-28 15:29 | 50.81748 | -1.45567 | 1217 ft | 119 kts | 18° |
| 2026-04-28 15:29 | 50.82476 | -1.45299 | 1228 ft | 98 kts | 20° |
| 2026-04-28 15:29 | 50.83165 | -1.44983 | 1233 ft | 110 kts | 24° |
| 2026-04-28 15:29 | 50.83915 | -1.44527 | 1242 ft | 120 kts | 26° |
| 2026-04-28 15:30 | 50.84666 | -1.43990 | 1250 ft | 110 kts | 28° |
| 2026-04-28 15:30 | 50.85312 | -1.43471 | 1222 ft | 101 kts | 31° |
| 2026-04-28 15:30 | 50.85944 | -1.42921 | 1219 ft | 106 kts | 32° |
| 2026-04-28 15:30 | 50.86600 | -1.42349 | 1195 ft | 108 kts | 32° |
| 2026-04-28 15:31 | 50.87255 | -1.41772 | 1186 ft | 107 kts | 33° |
| 2026-04-28 15:31 | 50.87901 | -1.41189 | 1191 ft | 107 kts | 32° |
| 2026-04-28 15:31 | 50.88533 | -1.40601 | 1181 ft | 104 kts | 33° |
| 2026-04-28 15:31 | 50.89156 | -1.39989 | 1075 ft | 107 kts | 35° |
| 2026-04-28 15:32 | 50.89765 | -1.39348 | 1008 ft | 108 kts | 34° |
| 2026-04-28 15:32 | 50.90206 | -1.38923 | 921 ft | 111 kts | 32° |
| 2026-04-28 15:32 | 50.91086 | -1.38083 | 774 ft | 113 kts | 32° |
| 2026-04-28 15:32 | 50.91770 | -1.37502 | 656 ft | 111 kts | 27° |
| 2026-04-28 15:33 | 50.92498 | -1.37049 | 466 ft | 113 kts | 18° |
| 2026-04-28 15:33 | 50.93233 | -1.36699 | 268 ft | 109 kts | 19° |
| 2026-04-28 15:33 | 50.93949 | -1.36279 | 144 ft | 111 kts | 22° |
| 2026-04-28 15:33 | 50.94648 | -1.35895 | 45 ft | 94 kts | 20° |
| 2026-04-28 15:34 | 50.95119 | -1.35625 | 44 ft | 49 kts | 17° |
| 2026-04-28 15:34 | 50.95325 | -1.35515 | 43 ft | 23 kts | 18° |
| 2026-04-28 15:34 | 50.95449 | -1.35453 | 49 ft | 16 kts | 21° |
| 2026-04-28 15:34 | 50.95541 | -1.35395 | 51 ft | 13 kts | 21° |
| 2026-04-28 15:35 | 50.95617 | -1.35349 | 51 ft | 12 kts | 20° |
| 2026-04-28 15:35 | 50.95708 | -1.35309 | 52 ft | 5 kts | 276° |
| 2026-04-28 15:35 | 50.95675 | -1.35339 | 51 ft | 7 kts | 185° |
| 2026-04-28 15:36 | 50.95617 | -1.35354 | 51 ft | 10 kts | 194° |
| 2026-04-28 15:36 | 50.95510 | -1.35410 | 50 ft | 20 kts | 199° |
| 2026-04-28 15:36 | 50.95375 | -1.35482 | 46 ft | 21 kts | 201° |
| 2026-04-28 15:36 | 50.95230 | -1.35565 | 44 ft | 23 kts | 198° |
| 2026-04-28 15:37 | 50.95083 | -1.35645 | 42 ft | 22 kts | 199° |
| 2026-04-28 15:37 | 50.95024 | -1.35754 | 44 ft | 11 kts | 287° |
| 2026-04-28 15:37 | 50.95048 | -1.35863 | 42 ft | 11 kts | 285° |
| 2026-04-28 15:37 | 50.95060 | -1.35938 | 42 ft | 10 kts | 286° |
| 2026-04-28 15:38 | 50.95072 | -1.35994 | 44 ft | 0 kts | 289° |